createdAt,value
2023-04-18T00:00:29.076Z,8.85
2023-04-18T00:02:56.252Z,8.47
2023-04-18T00:05:23.456Z,8.10
2023-04-18T00:07:51.679Z,8.05
2023-04-18T00:10:18.820Z,7.53
2023-04-18T00:12:45.660Z,6.97
2023-04-18T00:15:12.941Z,7.00
2023-04-18T00:17:40.003Z,6.90
2023-04-18T00:20:10.724Z,6.82
2023-04-18T00:22:42.728Z,6.85
2023-04-18T00:25:10.715Z,6.80
2023-04-18T00:27:39.413Z,6.20
2023-04-18T00:30:07.357Z,6.53
2023-04-18T00:32:34.308Z,6.25
2023-04-18T00:35:01.235Z,6.20
2023-04-18T00:37:29.095Z,6.75
2023-04-18T00:39:56.194Z,5.43
2023-04-18T00:42:23.052Z,5.80
2023-04-18T00:44:49.906Z,6.30
2023-04-18T00:47:17.674Z,5.38
2023-04-18T00:49:45.440Z,5.57
2023-04-18T00:52:12.645Z,6.47
2023-04-18T00:54:40.905Z,6.30
2023-04-18T00:57:08.112Z,5.20
2023-04-18T00:59:35.834Z,5.72
2023-04-18T01:02:06.017Z,5.75
2023-04-18T01:04:36.078Z,5.40
2023-04-18T01:07:03.498Z,5.63
2023-04-18T01:09:30.848Z,5.57
2023-04-18T01:11:57.689Z,5.28
2023-04-18T01:14:24.396Z,6.07
2023-04-18T01:16:51.236Z,5.47
2023-04-18T01:19:18.442Z,5.22
2023-04-18T01:21:45.645Z,5.78
2023-04-18T01:24:15.207Z,5.55
2023-04-18T01:26:44.271Z,5.53
2023-04-18T01:29:11.839Z,5.37
2023-04-18T01:31:39.766Z,5.68
2023-04-18T01:34:07.507Z,5.13
2023-04-18T01:36:36.882Z,5.32
2023-04-18T01:39:03.961Z,5.03
2023-04-18T01:41:32.828Z,5.40
2023-04-18T01:44:00.313Z,5.60
2023-04-18T01:46:28.153Z,5.13
2023-04-18T01:48:55.763Z,5.03
2023-04-18T01:51:22.955Z,6.03
2023-04-18T01:53:50.115Z,4.80
2023-04-18T01:56:17.219Z,4.95
2023-04-18T01:58:44.144Z,5.22
2023-04-18T02:01:11.042Z,5.35
2023-04-18T02:03:38.057Z,5.57
2023-04-18T02:06:05.898Z,5.10
2023-04-18T02:08:35.853Z,4.95
2023-04-18T02:11:03.558Z,4.95
2023-04-18T02:13:30.506Z,5.07
2023-04-18T02:15:57.429Z,5.00
2023-04-18T02:18:25.643Z,5.70
2023-04-18T02:20:52.629Z,5.05
2023-04-18T02:23:19.577Z,5.28
2023-04-18T02:25:46.460Z,5.35
2023-04-18T02:28:13.457Z,4.70
2023-04-18T02:30:40.240Z,4.80
2023-04-18T02:33:07.053Z,5.15
2023-04-18T02:35:33.936Z,4.93
2023-04-18T02:38:00.802Z,5.30
2023-04-18T02:40:27.775Z,5.18
2023-04-18T02:42:54.555Z,4.53
2023-04-18T02:45:21.392Z,5.30
2023-04-18T02:47:55.538Z,5.18
2023-04-18T02:50:24.276Z,4.70
2023-04-18T02:52:51.137Z,4.50
2023-04-18T02:55:18.032Z,4.53
2023-04-18T02:57:44.778Z,4.88
2023-04-18T03:00:13.670Z,5.00
2023-04-18T03:02:40.653Z,5.13
2023-04-18T03:05:07.917Z,5.20
2023-04-18T03:07:34.749Z,4.60
2023-04-18T03:10:01.611Z,5.40
2023-04-18T03:12:28.505Z,4.70
2023-04-18T03:14:55.312Z,4.60
2023-04-18T03:17:22.266Z,5.07
2023-04-18T03:19:49.223Z,5.37
2023-04-18T03:22:16.375Z,5.57
2023-04-18T03:24:43.159Z,5.40
2023-04-18T03:27:09.983Z,5.47
2023-04-18T03:29:36.783Z,5.63
2023-04-18T03:32:03.647Z,5.63
2023-04-18T03:34:30.816Z,5.50
2023-04-18T03:36:57.622Z,5.35
2023-04-18T03:39:24.412Z,5.82
2023-04-18T03:41:52.352Z,5.53
2023-04-18T03:44:19.167Z,5.80
2023-04-18T03:46:46.112Z,6.03
2023-04-18T03:49:12.874Z,5.97
2023-04-18T03:51:44.537Z,6.40
2023-04-18T03:54:11.513Z,5.65
2023-04-18T03:56:38.600Z,5.87
2023-04-18T03:59:05.436Z,6.63
2023-04-18T04:01:32.274Z,6.38
2023-04-18T04:03:59.349Z,6.00
2023-04-18T04:06:26.408Z,6.55
2023-04-18T04:08:53.293Z,6.40
2023-04-18T04:11:20.150Z,7.07
2023-04-18T04:13:46.945Z,6.40
2023-04-18T04:16:13.834Z,6.70
2023-04-18T04:18:40.784Z,6.13
2023-04-18T04:21:07.584Z,5.70
2023-04-18T04:23:34.468Z,7.35
2023-04-18T04:26:04.681Z,6.50
2023-04-18T04:28:31.747Z,6.25
2023-04-18T04:30:58.528Z,7.13
2023-04-18T04:33:28.869Z,6.33
2023-04-18T04:35:56.642Z,6.57
2023-04-18T04:38:23.543Z,7.30
2023-04-18T04:40:51.074Z,6.70
2023-04-18T04:43:20.722Z,7.28
2023-04-18T04:45:54.369Z,6.77
2023-04-18T04:48:22.292Z,5.97
2023-04-18T04:50:56.976Z,6.13
2023-04-18T04:53:25.817Z,6.88
2023-04-18T04:55:52.752Z,6.57
2023-04-18T04:58:20.016Z,5.97
2023-04-18T05:00:47.260Z,6.85
2023-04-18T05:03:14.268Z,6.45
2023-04-18T05:05:41.610Z,6.88
2023-04-18T05:08:08.472Z,6.82
2023-04-18T05:10:37.305Z,6.47
2023-04-18T05:13:04.534Z,6.68
2023-04-18T05:15:31.833Z,6.97
2023-04-18T05:17:59.076Z,6.57
2023-04-18T05:20:25.930Z,6.70
2023-04-18T05:22:52.746Z,5.77
2023-04-18T05:25:20.141Z,6.03
2023-04-18T05:27:47.330Z,6.25
2023-04-18T05:30:14.664Z,6.60
2023-04-18T05:32:41.762Z,6.20
2023-04-18T05:35:09.586Z,6.30
2023-04-18T05:37:36.526Z,6.55
2023-04-18T05:40:05.216Z,6.60
2023-04-18T05:42:32.109Z,6.60
2023-04-18T05:44:58.998Z,6.25
2023-04-18T05:47:28.677Z,6.50
2023-04-18T05:49:56.094Z,6.43
2023-04-18T05:52:23.061Z,6.57
2023-04-18T05:54:49.980Z,6.53
2023-04-18T05:57:16.895Z,6.90
2023-04-18T05:59:43.778Z,6.53
2023-04-18T06:02:13.839Z,6.68
2023-04-18T06:04:42.152Z,7.35
2023-04-18T06:07:09.967Z,7.00
2023-04-18T06:09:37.108Z,6.82
2023-04-18T06:12:04.433Z,6.83
2023-04-18T06:14:31.415Z,6.65
2023-04-18T06:16:58.437Z,7.00
2023-04-18T06:19:25.451Z,6.20
2023-04-18T06:21:53.380Z,6.80
2023-04-18T06:24:20.215Z,5.83
2023-04-18T06:26:47.459Z,7.00
2023-04-18T06:29:14.439Z,6.90
2023-04-18T06:31:42.358Z,6.53
2023-04-18T06:34:09.608Z,6.15
2023-04-18T06:36:36.863Z,6.40
2023-04-18T06:39:04.058Z,5.93
2023-04-18T06:41:31.695Z,6.60
2023-04-18T06:46:28.377Z,6.57
2023-04-18T06:48:55.264Z,6.17
2023-04-18T06:51:22.293Z,6.10
2023-04-18T06:53:52.875Z,5.88
2023-04-18T06:56:22.907Z,5.55
2023-04-18T06:58:50.059Z,6.05
2023-04-18T07:01:17.003Z,5.70
2023-04-18T07:03:44.090Z,5.85
2023-04-18T07:06:11.235Z,5.45
2023-04-18T07:08:38.393Z,6.20
2023-04-18T07:11:06.806Z,5.72
2023-04-18T07:13:33.702Z,5.57
2023-04-18T07:16:01.709Z,5.80
2023-04-18T07:18:37.635Z,5.43
2023-04-18T07:21:08.946Z,5.38
2023-04-18T07:23:36.928Z,5.47
2023-04-18T07:26:05.858Z,5.70
2023-04-18T07:28:33.265Z,5.78
2023-04-18T07:31:01.404Z,5.63
2023-04-18T07:33:31.812Z,5.53
2023-04-18T07:35:58.797Z,5.43
2023-04-18T07:38:25.620Z,4.93
2023-04-18T07:40:59.499Z,5.40
2023-04-18T07:43:27.065Z,5.38
2023-04-18T07:45:54.540Z,5.25
2023-04-18T07:48:22.730Z,5.10
2023-04-18T07:50:49.850Z,4.87
2023-04-18T07:53:17.189Z,4.95
2023-04-18T07:55:44.091Z,5.20
2023-04-18T07:58:11.322Z,5.40
2023-04-18T08:00:42.744Z,4.53
2023-04-18T08:03:13.196Z,4.80
2023-04-18T08:05:42.350Z,4.55
2023-04-18T08:08:10.615Z,4.30
2023-04-18T08:10:37.563Z,4.60
2023-04-18T08:13:04.783Z,4.35
2023-04-18T08:15:33.096Z,5.30
2023-04-18T08:18:01.504Z,4.90
2023-04-18T08:20:28.630Z,4.80
2023-04-18T08:25:25.177Z,4.47
2023-04-18T08:27:52.030Z,4.30
2023-04-18T08:30:19.073Z,4.05
2023-04-18T08:32:46.163Z,4.75
2023-04-18T08:35:13.165Z,3.97
2023-04-18T08:37:40.022Z,3.85
2023-04-18T08:40:07.646Z,4.27
2023-04-18T08:42:35.783Z,4.60
2023-04-18T08:45:02.886Z,4.07
2023-04-18T08:47:30.231Z,4.32
2023-04-18T08:49:58.657Z,4.20
2023-04-18T08:52:27.323Z,4.40
2023-04-18T08:54:54.272Z,4.25
2023-04-18T08:57:27.297Z,4.40
2023-04-18T08:59:55.583Z,4.15
2023-04-18T09:02:35.288Z,3.40
2023-04-18T09:05:11.412Z,3.93
2023-04-18T09:07:38.300Z,3.65
2023-04-18T09:10:05.794Z,3.58
2023-04-18T09:12:32.740Z,3.72
2023-04-18T09:15:15.952Z,3.97
2023-04-18T09:17:54.203Z,3.70
2023-04-18T09:20:34.997Z,4.20
2023-04-18T09:23:11.212Z,4.43
2023-04-18T09:25:51.103Z,4.55
2023-04-18T09:28:27.208Z,5.53
2023-04-18T09:30:58.684Z,4.47
2023-04-18T09:33:32.744Z,4.88
2023-04-18T09:36:19.415Z,4.57
2023-04-18T09:38:52.522Z,5.32
2023-04-18T09:41:22.605Z,4.20
2023-04-18T09:43:49.716Z,4.07
2023-04-18T09:46:17.957Z,3.92
2023-04-18T09:48:45.041Z,3.63
2023-04-18T09:51:15.970Z,3.78
2023-04-18T09:53:44.881Z,3.50
2023-04-18T09:56:28.148Z,4.23
2023-04-18T09:59:09.374Z,3.80
2023-04-18T10:01:36.951Z,3.30
2023-04-18T10:04:06.940Z,3.17
2023-04-18T10:06:35.639Z,3.40
2023-04-18T10:09:06.585Z,3.30
2023-04-18T10:11:33.655Z,3.13
2023-04-18T10:14:08.557Z,2.97
2023-04-18T10:16:36.444Z,3.10
2023-04-18T10:19:29.704Z,2.97
2023-04-18T10:22:01.631Z,3.43
2023-04-18T10:24:57.133Z,3.03
2023-04-18T10:27:48.846Z,3.30
2023-04-18T10:30:17.020Z,3.22
2023-04-18T10:32:46.061Z,3.20
2023-04-18T10:35:13.056Z,3.13
2023-04-18T10:37:52.484Z,3.17
2023-04-18T10:40:34.430Z,3.15
2023-04-18T10:43:01.814Z,2.90
2023-04-18T10:45:31.416Z,3.00
2023-04-18T10:48:30.353Z,2.90
2023-04-18T10:51:18.864Z,3.22
2023-04-18T10:53:52.869Z,3.45
2023-04-18T10:56:20.125Z,3.53
2023-04-18T10:58:51.554Z,3.55
2023-04-18T11:01:31.782Z,3.00
2023-04-18T11:04:00.673Z,3.22
2023-04-18T11:06:28.055Z,3.15
2023-04-18T11:09:14.450Z,3.40
2023-04-18T11:11:42.570Z,3.40
2023-04-18T11:14:09.667Z,3.40
2023-04-18T11:16:36.882Z,3.45
2023-04-18T11:19:21.402Z,4.50
2023-04-18T11:21:48.411Z,4.00
2023-04-18T11:24:24.841Z,4.20
2023-04-18T11:26:56.177Z,3.70
2023-04-18T11:29:23.605Z,4.88
2023-04-18T11:31:56.805Z,4.35
2023-04-18T11:34:30.891Z,4.70
2023-04-18T11:36:58.244Z,4.53
2023-04-18T11:39:25.694Z,4.93
2023-04-18T11:41:52.879Z,4.65
2023-04-18T11:44:26.950Z,5.43
2023-04-18T11:46:54.206Z,5.00
2023-04-18T11:49:28.618Z,4.45
2023-04-18T11:51:56.317Z,4.50
2023-04-18T11:54:35.922Z,5.30
2023-04-18T11:57:03.677Z,5.22
2023-04-18T11:59:30.799Z,5.05
2023-04-18T12:02:14.778Z,6.20
2023-04-18T12:05:00.391Z,5.90
2023-04-18T12:07:40.042Z,5.20
2023-04-18T12:10:20.220Z,5.15
2023-04-18T12:12:54.814Z,5.30
2023-04-18T12:15:28.294Z,5.35
2023-04-18T12:18:00.744Z,5.80
2023-04-18T12:20:39.057Z,5.70
2023-04-18T12:23:06.889Z,6.28
2023-04-18T12:25:35.038Z,5.05
2023-04-18T12:28:15.896Z,5.93
2023-04-18T12:30:42.970Z,5.73
2023-04-18T12:33:09.945Z,6.15
2023-04-18T12:35:36.937Z,5.93
2023-04-18T12:38:05.248Z,6.00
2023-04-18T12:40:32.191Z,6.20
2023-04-18T12:43:00.517Z,6.13
2023-04-18T12:45:29.436Z,6.53
2023-04-18T12:47:56.308Z,6.90
2023-04-18T12:50:25.546Z,6.07
2023-04-18T12:52:54.060Z,5.90
2023-04-18T12:55:22.831Z,6.33
2023-04-18T12:57:51.992Z,6.13
2023-04-18T13:00:18.862Z,6.25
2023-04-18T13:02:46.213Z,6.93
2023-04-18T13:05:14.750Z,6.78
2023-04-18T13:07:42.819Z,6.93
2023-04-18T13:10:11.196Z,7.18
2023-04-18T13:12:41.656Z,8.07
2023-04-18T13:15:09.900Z,7.00
2023-04-18T13:17:38.167Z,7.43
2023-04-18T13:20:13.124Z,7.23
2023-04-18T13:22:41.145Z,7.22
2023-04-18T13:25:10.883Z,7.20
2023-04-18T13:27:41.379Z,7.50
2023-04-18T13:30:12.147Z,6.93
2023-04-18T13:32:40.962Z,7.50
2023-04-18T13:35:11.254Z,7.85
2023-04-18T13:37:39.177Z,7.30
2023-04-18T13:40:07.147Z,7.43
2023-04-18T13:42:35.914Z,7.90
2023-04-18T13:45:03.452Z,7.67
2023-04-18T13:47:30.542Z,7.57
2023-04-18T13:49:58.072Z,6.72
2023-04-18T13:52:25.264Z,7.45
2023-04-18T13:54:52.153Z,7.78
2023-04-18T13:57:19.071Z,6.87
2023-04-18T13:59:45.901Z,7.10
2023-04-18T14:02:12.895Z,7.43
2023-04-18T14:04:39.984Z,7.65
2023-04-18T14:07:08.214Z,7.18
2023-04-18T14:09:35.263Z,7.70
2023-04-18T14:12:02.299Z,6.85
2023-04-18T14:14:29.706Z,6.88
2023-04-18T14:16:56.718Z,6.50
2023-04-18T14:19:24.081Z,7.05
2023-04-18T14:21:51.060Z,7.17
2023-04-18T14:24:18.132Z,7.70
2023-04-18T14:26:45.115Z,7.45
2023-04-18T14:29:12.295Z,7.20
2023-04-18T14:31:39.440Z,6.85
2023-04-18T14:34:08.408Z,6.87
2023-04-18T14:36:36.056Z,6.93
2023-04-18T14:39:03.659Z,6.97
2023-04-18T14:41:30.724Z,6.53
2023-04-18T14:43:57.732Z,6.70
2023-04-18T14:46:25.458Z,6.67
2023-04-18T14:48:52.265Z,6.78
2023-04-18T14:51:19.254Z,6.57
2023-04-18T14:53:46.382Z,7.15
2023-04-18T14:56:13.773Z,6.93
2023-04-18T14:58:40.625Z,7.23
2023-04-18T15:01:07.472Z,6.78
2023-04-18T15:03:34.743Z,6.47
2023-04-18T15:06:01.834Z,6.15
2023-04-18T15:08:31.339Z,6.55
2023-04-18T15:10:59.548Z,6.67
2023-04-18T15:13:26.548Z,6.53
2023-04-18T15:15:54.259Z,6.60
2023-04-18T15:18:21.504Z,6.82
2023-04-18T15:20:48.650Z,6.80
2023-04-18T15:23:16.098Z,6.67
2023-04-18T15:25:44.714Z,5.70
2023-04-18T15:28:13.593Z,6.38
2023-04-18T15:30:40.885Z,6.07
2023-04-18T15:33:08.617Z,5.85
2023-04-18T15:35:36.144Z,5.67
2023-04-18T15:38:03.041Z,6.40
2023-04-18T15:40:30.485Z,6.00
2023-04-18T15:42:59.691Z,6.63
2023-04-18T15:45:26.675Z,5.80
2023-04-18T15:47:53.600Z,5.70
2023-04-18T15:50:20.735Z,5.40
2023-04-18T15:52:47.710Z,6.57
2023-04-18T15:55:14.864Z,5.70
2023-04-18T15:57:42.175Z,6.22
2023-04-18T16:00:16.010Z,5.70
2023-04-18T16:02:46.719Z,5.70
2023-04-18T16:05:14.370Z,6.25
2023-04-18T16:07:42.442Z,5.80
2023-04-18T16:10:11.257Z,5.78
2023-04-18T16:12:39.660Z,5.80
2023-04-18T16:15:08.695Z,5.63
2023-04-18T16:17:39.018Z,5.88
2023-04-18T16:20:08.435Z,5.70
2023-04-18T16:22:35.412Z,5.85
2023-04-18T16:25:02.420Z,5.93
2023-04-18T16:27:29.320Z,5.75
2023-04-18T16:29:56.121Z,5.93
2023-04-18T16:32:23.176Z,6.10
2023-04-18T16:34:49.997Z,4.88
2023-04-18T16:37:16.812Z,5.60
2023-04-18T16:39:43.661Z,5.65
2023-04-18T16:42:10.467Z,6.03
2023-04-18T16:44:37.440Z,5.32
2023-04-18T16:47:05.248Z,5.53
2023-04-18T16:49:32.176Z,5.57
2023-04-18T16:51:59.163Z,5.72
2023-04-18T16:54:26.179Z,6.03
2023-04-18T16:56:53.265Z,5.65
2023-04-18T16:59:20.140Z,6.05
2023-04-18T17:01:47.108Z,5.37
2023-04-18T17:04:15.522Z,5.57
2023-04-18T17:06:43.897Z,5.63
2023-04-18T17:09:13.664Z,5.65
2023-04-18T17:11:41.482Z,4.85
2023-04-18T17:14:08.857Z,5.07
2023-04-18T17:16:39.794Z,4.85
2023-04-18T17:19:07.262Z,4.80
2023-04-18T17:21:35.236Z,4.60
2023-04-18T17:24:04.191Z,5.78
2023-04-18T17:26:31.483Z,5.50
2023-04-18T17:28:58.479Z,5.45
2023-04-18T17:31:25.499Z,5.63
2023-04-18T17:33:53.070Z,5.80
2023-04-18T17:36:20.067Z,6.00
2023-04-18T17:38:50.127Z,5.27
2023-04-18T17:41:18.505Z,5.22
2023-04-18T17:43:46.424Z,5.90
2023-04-18T17:46:14.286Z,5.05
2023-04-18T17:48:41.615Z,5.43
2023-04-18T17:51:08.511Z,5.53
2023-04-18T17:53:35.490Z,5.80
2023-04-18T17:56:03.750Z,5.22
2023-04-18T17:58:30.717Z,5.65
2023-04-18T18:00:57.778Z,4.68
2023-04-18T18:03:24.851Z,5.10
2023-04-18T18:05:52.010Z,5.30
2023-04-18T18:08:18.902Z,5.18
2023-04-18T18:10:47.153Z,5.13
2023-04-18T18:13:14.128Z,5.25
2023-04-18T18:15:41.091Z,5.57
2023-04-18T18:18:08.112Z,5.22
2023-04-18T18:20:35.121Z,5.30
2023-04-18T18:23:02.978Z,5.72
2023-04-18T18:25:30.517Z,5.60
2023-04-18T18:27:57.427Z,5.27
2023-04-18T18:30:24.279Z,5.10
2023-04-18T18:32:51.477Z,5.13
2023-04-18T18:35:18.383Z,5.88
2023-04-18T18:37:45.301Z,5.00
2023-04-18T18:40:13.210Z,5.53
2023-04-18T18:42:40.252Z,5.55
2023-04-18T18:45:07.924Z,5.70
2023-04-18T18:47:35.822Z,5.85
2023-04-18T18:50:04.759Z,5.13
2023-04-18T18:52:32.777Z,5.90
2023-04-18T18:55:01.411Z,6.18
2023-04-18T18:57:28.426Z,5.55
2023-04-18T18:59:55.934Z,5.82
2023-04-18T19:02:23.469Z,6.20
2023-04-18T19:04:50.511Z,5.10
2023-04-18T19:07:17.440Z,5.57
2023-04-18T19:09:45.869Z,5.85
2023-04-18T19:12:12.811Z,5.45
2023-04-18T19:14:40.693Z,6.25
2023-04-18T19:17:09.240Z,5.90
2023-04-18T19:19:36.403Z,5.90
2023-04-18T19:22:03.290Z,5.93
2023-04-18T19:24:32.099Z,5.03
2023-04-18T19:26:59.821Z,5.63
2023-04-18T19:29:26.955Z,4.70
2023-04-18T19:31:54.027Z,4.55
2023-04-18T19:34:22.311Z,4.53
2023-04-18T19:36:49.322Z,4.30
2023-04-18T19:39:16.578Z,4.50
2023-04-18T19:41:43.729Z,4.07
2023-04-18T19:44:10.635Z,3.95
2023-04-18T19:46:37.736Z,4.07
2023-04-18T19:49:04.599Z,4.30
2023-04-18T19:51:31.519Z,4.40
2023-04-18T19:53:58.375Z,4.67
2023-04-18T19:56:25.371Z,4.22
2023-04-18T19:58:52.365Z,4.50
2023-04-18T20:01:20.419Z,4.47
2023-04-18T20:03:48.351Z,4.68
2023-04-18T20:06:17.206Z,5.30
2023-04-18T20:08:46.005Z,4.72
2023-04-18T20:11:16.498Z,4.95
2023-04-18T20:13:43.444Z,4.03
2023-04-18T20:16:11.194Z,4.63
2023-04-18T20:18:39.594Z,4.83
2023-04-18T20:21:07.816Z,4.70
2023-04-18T20:23:38.322Z,4.90
2023-04-18T20:26:05.263Z,4.88
2023-04-18T20:28:32.463Z,5.35
2023-04-18T20:30:59.515Z,6.00
2023-04-18T20:33:26.470Z,5.13
2023-04-18T20:35:54.810Z,4.85
2023-04-18T20:38:25.863Z,5.10
2023-04-18T20:40:54.295Z,4.75
2023-04-18T20:43:21.841Z,5.17
2023-04-18T20:45:51.658Z,4.90
2023-04-18T20:48:18.772Z,4.35
2023-04-18T20:50:51.322Z,4.68
2023-04-18T20:53:22.570Z,4.57
2023-04-18T20:55:49.433Z,4.67
2023-04-18T20:58:16.913Z,4.60
2023-04-18T21:00:46.825Z,4.72
2023-04-18T21:03:14.240Z,4.63
2023-04-18T21:05:41.489Z,4.53
2023-04-18T21:08:08.322Z,4.60
2023-04-18T21:10:35.102Z,4.70
2023-04-18T21:13:01.974Z,4.47
2023-04-18T21:15:28.845Z,4.68
2023-04-18T21:17:56.088Z,4.32
2023-04-18T21:20:23.042Z,4.57
2023-04-18T21:22:49.871Z,4.43
2023-04-18T21:25:17.048Z,3.90
2023-04-18T21:27:43.865Z,4.13
2023-04-18T21:30:11.035Z,4.22
2023-04-18T21:32:37.951Z,4.70
2023-04-18T21:35:05.114Z,3.75
2023-04-18T21:37:32.364Z,4.10
2023-04-18T21:39:59.169Z,4.20
2023-04-18T21:42:27.022Z,4.25
2023-04-18T21:44:54.979Z,4.20
2023-04-18T21:47:22.246Z,4.15
2023-04-18T21:49:49.453Z,3.92
2023-04-18T21:52:16.497Z,4.07
2023-04-18T21:54:43.308Z,4.70
2023-04-18T21:57:10.110Z,4.13
2023-04-18T21:59:39.635Z,4.05
2023-04-18T22:02:06.881Z,4.05
2023-04-18T22:04:35.052Z,3.92
2023-04-18T22:07:02.533Z,3.65
2023-04-18T22:09:29.844Z,4.17
2023-04-18T22:11:57.080Z,4.32
2023-04-18T22:14:24.935Z,4.30
2023-04-18T22:16:51.940Z,3.92
2023-04-18T22:19:19.298Z,4.13
2023-04-18T22:21:46.632Z,4.37
2023-04-18T22:24:13.576Z,3.70
2023-04-18T22:26:41.038Z,4.00
2023-04-18T22:29:07.882Z,3.78
2023-04-18T22:31:34.668Z,4.22
2023-04-18T22:34:01.530Z,4.50
2023-04-18T22:36:28.511Z,4.60
2023-04-18T22:38:55.443Z,3.83
2023-04-18T22:41:22.231Z,4.43
2023-04-18T22:43:49.119Z,3.85
2023-04-18T22:46:16.024Z,4.53
2023-04-18T22:48:44.943Z,4.13
2023-04-18T22:51:11.892Z,4.05
2023-04-18T22:53:38.698Z,4.57
2023-04-18T22:56:05.774Z,4.00
2023-04-18T22:58:32.741Z,4.03
2023-04-18T23:00:59.806Z,4.10
2023-04-18T23:03:26.743Z,3.90
2023-04-18T23:05:53.789Z,4.18
2023-04-18T23:08:22.713Z,4.38
2023-04-18T23:10:49.608Z,4.47
2023-04-18T23:13:16.389Z,3.83
2023-04-18T23:15:43.305Z,4.63
2023-04-18T23:18:10.272Z,4.03
2023-04-18T23:20:37.943Z,4.53
2023-04-18T23:23:04.812Z,3.83
2023-04-18T23:25:34.394Z,3.95
2023-04-18T23:28:01.297Z,4.07
2023-04-18T23:30:28.028Z,4.32
2023-04-18T23:32:54.836Z,4.38
2023-04-18T23:35:21.849Z,3.93
2023-04-18T23:37:48.783Z,4.75
2023-04-18T23:40:15.565Z,4.57
2023-04-18T23:42:42.360Z,4.63
2023-04-18T23:45:09.317Z,4.38
2023-04-18T23:47:36.673Z,4.53
2023-04-18T23:50:03.697Z,4.68
2023-04-18T23:52:30.639Z,4.50
2023-04-18T23:55:01.004Z,4.90
2023-04-18T23:57:28.081Z,4.75
2023-04-18T23:59:54.852Z,4.73
